ADDS METAR Data INFO
IDs: Format: Raw Decoded Include TAF

Data at: 0355 UTC 19 Jul 2018

KGSO 190254Z 09005KT 10SM FEW060 SCT250 24/16 A3000 RMK AO2 SLP148 T02390161 53013
KGSO 190154Z 09005KT 10SM SCT065 BKN250 24/17 A2999 RMK AO2 SLP144 T02440167
KGSO 190054Z 09006KT 10SM BKN080 BKN250 27/17 A2998 RMK AO2 SLP138 T02670167
KGSO 182354Z 07009KT 10SM BKN060 BKN250 28/17 A2996 RMK AO2 SLP134 T02830167 10306 20283 53006
KGSO 182254Z 08007KT 10SM SCT055 BKN250 29/17 A2995 RMK AO2 SLP129 T02940167
KGSO 182154Z 04006KT 10SM SCT060 BKN250 30/17 A2994 RMK AO2 SLP126 T03000167
KGSO 182054Z 10005KT 10SM BKN060 BKN250 30/17 A2995 RMK AO2 SLP128 T03000172 58010
KGSO 181954Z 11004KT 10SM BKN055 BKN250 29/17 A2996 RMK AO2 SLP131 T02940172
KGSO 181854Z 33005KT 10SM BKN060 BKN250 29/17 A2997 RMK AO2 SLP135 T02940167
KGSO 181754Z 00000KT 10SM BKN060 BKN250 29/17 A2998 RMK AO2 SLP138 T02940167 10300 20239 58010
KGSO 181654Z VRB04KT 10SM BKN050 BKN070 BKN250 28/17 A3000 RMK AO2 SLP145 T02830167
KGSO 181554Z 36006KT 10SM SCT040 BKN065 BKN200 BKN250 28/16 A3001 RMK AO2 SLP148 T02780161
KGSO 181454Z 06007KT 10SM SCT035 SCT060 SCT200 BKN250 28/19 A3001 RMK AO2 SLP149 T02830194 50010
KGSO 181354Z 06010KT 10SM FEW027 SCT055 BKN200 BKN250 27/20 A3001 RMK AO2 SLP150 T02720200
KGSO 181254Z 04010KT 10SM FEW022 SCT045 BKN200 BKN250 26/19 A3000 RMK AO2 SLP148 T02560194
KGSO 181154Z 02007KT 10SM BKN250 24/20 A2998 RMK AO2 SLP140 T02390200 10256 20228 53021
KGSO 181054Z 00000KT 10SM SCT100 BKN250 23/21 A2996 RMK AO2 SLP133 T02280211
KGSO 180954Z 36003KT 10SM BKN100 BKN250 23/22 A2993 RMK AO2 SLP123 T02280217
KGSO 180854Z 01004KT 10SM CLR 23/21 A2991 RMK AO2 SLP118 T02280211 58003
KGSO 180754Z 01003KT 10SM CLR 24/21 A2992 RMK AO2 SLP119 T02390206
KGSO 180654Z 35004KT 10SM FEW080 SCT150 25/21 A2993 RMK AO2 SLP120 T02500211
KGSO 180554Z 35003KT 10SM BKN100 26/22 A2992 RMK AO2 SLP119 T02560222 10278 20244 55002
KGSO 180454Z 31004KT 10SM FEW035 SCT080 25/22 A2992 RMK AO2 SLP119 T02500222 403390222
KGSO 180354Z 31005KT 10SM FEW037 SCT055 26/23 A2992 RMK AO2 SLP119 T02610228
KGSO 180254Z 23005KT 10SM BKN080 BKN100 OVC250 27/23 A2993 RMK AO2 SLP122 T02670233 53012
KGSO 180154Z 22004KT 10SM FEW040 SCT080 BKN250 26/23 A2992 RMK AO2 SLP118 FRQ LTGICCG DSNT SE CB DSNT SE T02610233
KGSO 180054Z 26006KT 10SM FEW045 SCT120 BKN250 27/23 A2990 RMK AO2 SLP111 T02670228
KGSO 172354Z 23006KT 10SM FEW045 SCT120 BKN250 28/22 A2989 RMK AO2 SLP110 60000 T02780222 10339 20267 55000
KGSO 172254Z 24008KT 10SM FEW040 BKN100 OVC250 29/21 A2989 RMK AO2 SLP109 CB DSNT E T02940206
KGSO 172154Z 27009KT 10SM SCT040 BKN120 BKN250 28/22 A2988 RMK AO2 WSHFT 2043 RAB2059E54 SLP105 CB DSNT E P0000 T02780217
KGSO 172104Z 29013KT 10SM -RA BKN045CB BKN100 OVC250 28/22 A2989 RMK AO2 WSHFT 2043 RAB2059 CB OHD MOV E P0000 T02780217
KGSO 172054Z COR 30020G26KT 10SM BKN050CB BKN250 28/21 A2989 RMK AO2 PK WND 29026/2048 SLP110 CB OHD MOV E T02830211 55009
KGSO 171954Z 26008KT 10SM BKN050TCU BKN250 32/20 A2987 RMK AO2 SLP100 CB DSNT N AND NW TCU OHD T03220200
KGSO 171854Z 26010G17KT 10SM BKN050TCU BKN250 33/22 A2989 RMK AO2 SLP107 CB DSNT NE-SE TCU NW T03330217
KGSO 171754Z VRB06KT 10SM SCT040 BKN050 BKN250 32/22 A2992 RMK AO2 SLP119 CB DSNT NE TCU DSNT N T03170217 10322 20239 58019
KGSO 171654Z VRB06G15KT 10SM SCT030 BKN250 31/22 A2996 RMK AO2 SLP130 T03060222